sensor_id;sensor_type;location;lat;lon;timestamp;pressure;altitude;pressure_sealevel;temperature;humidity
74615;BME280;63121;51.458;-0.110;2023-03-12T00:02:06;100509.63;;;9.92;71.24
74615;BME280;63121;51.458;-0.110;2023-03-12T00:04:31;100504.03;;;10.28;70.03
74615;BME280;63121;51.458;-0.110;2023-03-12T00:06:59;100502.50;;;10.13;70.78
74615;BME280;63121;51.458;-0.110;2023-03-12T00:09:24;100494.69;;;10.19;70.43
74615;BME280;63121;51.458;-0.110;2023-03-12T00:11:49;100501.47;;;10.31;70.37
74615;BME280;63121;51.458;-0.110;2023-03-12T00:14:15;100504.41;;;9.98;71.59
74615;BME280;63121;51.458;-0.110;2023-03-12T00:16:40;100497.34;;;10.14;71.20
74615;BME280;63121;51.458;-0.110;2023-03-12T00:19:05;100508.06;;;9.79;72.20
74615;BME280;63121;51.458;-0.110;2023-03-12T00:21:31;100511.53;;;9.76;72.37
74615;BME280;63121;51.458;-0.110;2023-03-12T00:23:56;100500.81;;;10.10;71.78
74615;BME280;63121;51.458;-0.110;2023-03-12T00:26:22;100489.69;;;10.07;71.62
74615;BME280;63121;51.458;-0.110;2023-03-12T00:28:48;100482.50;;;10.33;70.77
74615;BME280;63121;51.458;-0.110;2023-03-12T00:33:41;100475.81;;;10.14;71.37
74615;BME280;63121;51.458;-0.110;2023-03-12T00:36:07;100477.97;;;10.49;70.79
74615;BME280;63121;51.458;-0.110;2023-03-12T00:38:32;100478.13;;;10.38;71.02
74615;BME280;63121;51.458;-0.110;2023-03-12T00:40:58;100482.44;;;10.35;71.02
74615;BME280;63121;51.458;-0.110;2023-03-12T00:43:23;100474.66;;;10.40;70.69
74615;BME280;63121;51.458;-0.110;2023-03-12T00:45:48;100482.78;;;10.10;72.59
74615;BME280;63121;51.458;-0.110;2023-03-12T00:48:14;100481.34;;;10.53;70.88
74615;BME280;63121;51.458;-0.110;2023-03-12T00:50:39;100476.44;;;10.36;71.57
74615;BME280;63121;51.458;-0.110;2023-03-12T00:53:05;100484.28;;;10.27;72.28
74615;BME280;63121;51.458;-0.110;2023-03-12T00:55:30;100483.63;;;10.73;70.89
74615;BME280;63121;51.458;-0.110;2023-03-12T00:57:55;100489.91;;;10.56;72.00
74615;BME280;63121;51.458;-0.110;2023-03-12T01:00:21;100486.13;;;10.15;73.49
74615;BME280;63121;51.458;-0.110;2023-03-12T01:02:46;100482.44;;;10.36;72.98
74615;BME280;63121;51.458;-0.110;2023-03-12T01:05:12;100481.28;;;10.56;72.61
74615;BME280;63121;51.458;-0.110;2023-03-12T01:07:38;100483.78;;;10.62;72.59
74615;BME280;63121;51.458;-0.110;2023-03-12T01:10:05;100493.25;;;10.62;72.73
74615;BME280;63121;51.458;-0.110;2023-03-12T01:12:31;100488.41;;;10.40;74.08
74615;BME280;63121;51.458;-0.110;2023-03-12T01:14:56;100497.22;;;10.22;74.53
74615;BME280;63121;51.458;-0.110;2023-03-12T01:17:22;100485.59;;;10.57;74.05
74615;BME280;63121;51.458;-0.110;2023-03-12T01:19:47;100489.03;;;10.57;74.13
74615;BME280;63121;51.458;-0.110;2023-03-12T01:22:12;100500.28;;;10.52;74.90
74615;BME280;63121;51.458;-0.110;2023-03-12T01:24:38;100495.84;;;10.60;74.66
74615;BME280;63121;51.458;-0.110;2023-03-12T01:27:03;100483.59;;;10.76;74.45
74615;BME280;63121;51.458;-0.110;2023-03-12T01:29:29;100482.19;;;10.53;75.14
74615;BME280;63121;51.458;-0.110;2023-03-12T01:31:54;100482.03;;;10.64;74.33
74615;BME280;63121;51.458;-0.110;2023-03-12T01:34:19;100475.59;;;10.91;73.93
74615;BME280;63121;51.458;-0.110;2023-03-12T01:36:45;100475.50;;;10.97;73.49
74615;BME280;63121;51.458;-0.110;2023-03-12T01:39:12;100468.69;;;10.92;73.82
74615;BME280;63121;51.458;-0.110;2023-03-12T01:41:37;100466.16;;;10.90;73.78
74615;BME280;63121;51.458;-0.110;2023-03-12T01:44:03;100470.25;;;11.02;73.67
74615;BME280;63121;51.458;-0.110;2023-03-12T01:46:35;100477.16;;;11.00;74.00
74615;BME280;63121;51.458;-0.110;2023-03-12T01:51:38;100464.72;;;11.24;73.71
74615;BME280;63121;51.458;-0.110;2023-03-12T01:54:08;100459.03;;;11.05;74.10
74615;BME280;63121;51.458;-0.110;2023-03-12T01:56:36;100468.97;;;10.75;75.62
74615;BME280;63121;51.458;-0.110;2023-03-12T01:59:16;100465.06;;;11.04;74.47
74615;BME280;63121;51.458;-0.110;2023-03-12T02:01:43;100479.75;;;11.00;74.79
74615;BME280;63121;51.458;-0.110;2023-03-12T02:04:10;100477.75;;;11.17;74.52
74615;BME280;63121;51.458;-0.110;2023-03-12T02:06:47;100474.06;;;11.29;73.70
74615;BME280;63121;51.458;-0.110;2023-03-12T02:09:13;100483.31;;;10.93;74.98
74615;BME280;63121;51.458;-0.110;2023-03-12T02:11:39;100492.31;;;11.22;74.12
74615;BME280;63121;51.458;-0.110;2023-03-12T02:14:05;100483.78;;;11.16;74.65
74615;BME280;63121;51.458;-0.110;2023-03-12T02:16:31;100483.22;;;10.99;75.34
74615;BME280;63121;51.458;-0.110;2023-03-12T02:18:59;100490.78;;;11.11;75.32
74615;BME280;63121;51.458;-0.110;2023-03-12T02:21:27;100497.22;;;11.37;74.31
74615;BME280;63121;51.458;-0.110;2023-03-12T02:24:11;100494.84;;;11.23;74.98
74615;BME280;63121;51.458;-0.110;2023-03-12T02:26:40;100493.38;;;11.10;75.44
74615;BME280;63121;51.458;-0.110;2023-03-12T02:29:06;100485.72;;;11.53;73.69
74615;BME280;63121;51.458;-0.110;2023-03-12T02:31:37;100482.13;;;11.12;75.05
74615;BME280;63121;51.458;-0.110;2023-03-12T02:34:05;100489.47;;;10.84;76.10
74615;BME280;63121;51.458;-0.110;2023-03-12T02:36:30;100486.25;;;11.24;74.99
74615;BME280;63121;51.458;-0.110;2023-03-12T02:38:56;100490.59;;;11.21;75.02
74615;BME280;63121;51.458;-0.110;2023-03-12T02:41:31;100480.69;;;11.46;74.27
74615;BME280;63121;51.458;-0.110;2023-03-12T02:46:26;100482.44;;;10.94;76.00
74615;BME280;63121;51.458;-0.110;2023-03-12T02:48:52;100473.72;;;11.01;76.26
74615;BME280;63121;51.458;-0.110;2023-03-12T02:51:17;100481.47;;;11.01;75.97
74615;BME280;63121;51.458;-0.110;2023-03-12T02:53:43;100477.75;;;11.16;75.75
74615;BME280;63121;51.458;-0.110;2023-03-12T02:56:08;100473.28;;;11.26;75.21
74615;BME280;63121;51.458;-0.110;2023-03-12T02:58:34;100473.84;;;11.42;74.32
74615;BME280;63121;51.458;-0.110;2023-03-12T03:01:00;100477.97;;;11.53;74.26
74615;BME280;63121;51.458;-0.110;2023-03-12T03:03:25;100481.97;;;11.68;73.28
74615;BME280;63121;51.458;-0.110;2023-03-12T03:05:51;100482.00;;;11.67;73.51
74615;BME280;63121;51.458;-0.110;2023-03-12T03:08:16;100486.97;;;11.76;73.35
74615;BME280;63121;51.458;-0.110;2023-03-12T03:10:42;100500.28;;;11.57;73.99
74615;BME280;63121;51.458;-0.110;2023-03-12T03:13:07;100493.09;;;11.25;74.96
74615;BME280;63121;51.458;-0.110;2023-03-12T03:15:32;100504.88;;;11.40;74.54
74615;BME280;63121;51.458;-0.110;2023-03-12T03:17:58;100500.44;;;11.48;74.67
74615;BME280;63121;51.458;-0.110;2023-03-12T03:20:23;100496.88;;;12.00;72.65
74615;BME280;63121;51.458;-0.110;2023-03-12T03:22:50;100494.50;;;11.91;72.54
74615;BME280;63121;51.458;-0.110;2023-03-12T03:25:16;100495.75;;;11.69;73.43
74615;BME280;63121;51.458;-0.110;2023-03-12T03:27:42;100493.59;;;11.92;72.86
74615;BME280;63121;51.458;-0.110;2023-03-12T03:30:10;100492.00;;;11.85;72.73
74615;BME280;63121;51.458;-0.110;2023-03-12T03:32:37;100496.38;;;11.36;74.10
74615;BME280;63121;51.458;-0.110;2023-03-12T03:35:02;100503.09;;;11.45;73.81
74615;BME280;63121;51.458;-0.110;2023-03-12T03:37:28;100514.41;;;11.38;74.45
74615;BME280;63121;51.458;-0.110;2023-03-12T03:39:53;100516.09;;;11.41;73.73
74615;BME280;63121;51.458;-0.110;2023-03-12T03:42:19;100513.66;;;11.31;74.28
74615;BME280;63121;51.458;-0.110;2023-03-12T03:44:44;100515.31;;;11.35;74.06
74615;BME280;63121;51.458;-0.110;2023-03-12T03:47:09;100517.19;;;11.26;74.20
74615;BME280;63121;51.458;-0.110;2023-03-12T03:49:35;100525.47;;;11.45;73.12
74615;BME280;63121;51.458;-0.110;2023-03-12T03:52:00;100534.97;;;10.93;75.49
74615;BME280;63121;51.458;-0.110;2023-03-12T03:54:25;100541.72;;;11.02;75.00
74615;BME280;63121;51.458;-0.110;2023-03-12T03:56:51;100542.53;;;11.05;74.44
74615;BME280;63121;51.458;-0.110;2023-03-12T03:59:16;100550.50;;;10.90;75.19
74615;BME280;63121;51.458;-0.110;2023-03-12T04:01:42;100554.97;;;10.78;75.53
74615;BME280;63121;51.458;-0.110;2023-03-12T04:04:07;100559.78;;;11.03;74.58
74615;BME280;63121;51.458;-0.110;2023-03-12T04:06:33;100560.38;;;10.63;76.30
74615;BME280;63121;51.458;-0.110;2023-03-12T04:08:58;100561.72;;;10.89;75.68
74615;BME280;63121;51.458;-0.110;2023-03-12T04:11:24;100561.06;;;10.73;75.45
74615;BME280;63121;51.458;-0.110;2023-03-12T04:13:50;100569.78;;;10.66;75.77
74615;BME280;63121;51.458;-0.110;2023-03-12T04:16:16;100569.03;;;10.59;76.15
74615;BME280;63121;51.458;-0.110;2023-03-12T04:18:43;100570.06;;;10.46;76.79
74615;BME280;63121;51.458;-0.110;2023-03-12T04:21:10;100580.19;;;10.58;76.97
74615;BME280;63121;51.458;-0.110;2023-03-12T04:23:36;100581.00;;;10.63;76.16
74615;BME280;63121;51.458;-0.110;2023-03-12T04:26:02;100581.47;;;10.23;78.47
74615;BME280;63121;51.458;-0.110;2023-03-12T04:28:27;100571.13;;;10.29;77.82
74615;BME280;63121;51.458;-0.110;2023-03-12T04:30:55;100576.13;;;10.42;77.28
74615;BME280;63121;51.458;-0.110;2023-03-12T04:33:21;100563.31;;;10.35;77.68
74615;BME280;63121;51.458;-0.110;2023-03-12T04:35:51;100567.38;;;10.52;76.34
74615;BME280;63121;51.458;-0.110;2023-03-12T04:38:18;100560.69;;;10.37;77.25
74615;BME280;63121;51.458;-0.110;2023-03-12T04:40:43;100576.94;;;10.45;76.39
74615;BME280;63121;51.458;-0.110;2023-03-12T04:43:08;100568.94;;;10.65;75.62
74615;BME280;63121;51.458;-0.110;2023-03-12T04:45:34;100591.19;;;10.74;74.88
74615;BME280;63121;51.458;-0.110;2023-03-12T04:47:59;100592.31;;;10.54;75.85
74615;BME280;63121;51.458;-0.110;2023-03-12T04:50:24;100594.44;;;10.17;77.59
74615;BME280;63121;51.458;-0.110;2023-03-12T04:52:50;100599.41;;;10.37;76.86
74615;BME280;63121;51.458;-0.110;2023-03-12T04:55:15;100606.56;;;10.12;77.80
74615;BME280;63121;51.458;-0.110;2023-03-12T04:57:41;100597.88;;;10.17;77.84
74615;BME280;63121;51.458;-0.110;2023-03-12T05:00:06;100615.19;;;10.08;78.01
74615;BME280;63121;51.458;-0.110;2023-03-12T05:02:37;100617.31;;;10.51;76.51
74615;BME280;63121;51.458;-0.110;2023-03-12T05:05:02;100619.28;;;10.29;76.98
74615;BME280;63121;51.458;-0.110;2023-03-12T05:07:28;100629.59;;;10.26;76.93
74615;BME280;63121;51.458;-0.110;2023-03-12T05:09:53;100622.78;;;10.20;77.11
74615;BME280;63121;51.458;-0.110;2023-03-12T05:12:19;100628.53;;;10.48;75.88
74615;BME280;63121;51.458;-0.110;2023-03-12T05:14:44;100624.34;;;10.36;76.99
74615;BME280;63121;51.458;-0.110;2023-03-12T05:17:09;100615.72;;;10.39;76.14
74615;BME280;63121;51.458;-0.110;2023-03-12T05:19:35;100612.34;;;10.32;76.18
74615;BME280;63121;51.458;-0.110;2023-03-12T05:22:00;100615.47;;;10.59;75.02
74615;BME280;63121;51.458;-0.110;2023-03-12T05:24:26;100622.69;;;10.32;75.91
74615;BME280;63121;51.458;-0.110;2023-03-12T05:26:52;100628.59;;;10.42;75.26
74615;BME280;63121;51.458;-0.110;2023-03-12T05:29:18;100647.72;;;10.23;76.13
74615;BME280;63121;51.458;-0.110;2023-03-12T05:31:43;100647.72;;;10.23;76.20
74615;BME280;63121;51.458;-0.110;2023-03-12T05:34:11;100635.84;;;10.08;76.82
74615;BME280;63121;51.458;-0.110;2023-03-12T05:36:37;100635.50;;;10.38;75.24
74615;BME280;63121;51.458;-0.110;2023-03-12T05:39:03;100652.53;;;10.53;74.75
74615;BME280;63121;51.458;-0.110;2023-03-12T05:41:29;100664.03;;;10.23;75.90
74615;BME280;63121;51.458;-0.110;2023-03-12T05:43:55;100664.31;;;9.95;76.31
74615;BME280;63121;51.458;-0.110;2023-03-12T05:46:25;100662.72;;;10.67;73.79
74615;BME280;63121;51.458;-0.110;2023-03-12T05:48:51;100657.97;;;10.26;75.36
74615;BME280;63121;51.458;-0.110;2023-03-12T05:51:17;100658.75;;;10.37;75.09
74615;BME280;63121;51.458;-0.110;2023-03-12T05:53:42;100646.66;;;10.41;75.12
74615;BME280;63121;51.458;-0.110;2023-03-12T05:56:11;100654.63;;;10.21;75.22
74615;BME280;63121;51.458;-0.110;2023-03-12T05:58:37;100646.94;;;10.14;75.58
74615;BME280;63121;51.458;-0.110;2023-03-12T06:01:10;100648.78;;;10.02;76.36
74615;BME280;63121;51.458;-0.110;2023-03-12T06:03:36;100650.41;;;10.09;75.34
74615;BME280;63121;51.458;-0.110;2023-03-12T06:06:01;100642.28;;;10.49;74.14
74615;BME280;63121;51.458;-0.110;2023-03-12T06:08:26;100642.63;;;10.15;75.06
74615;BME280;63121;51.458;-0.110;2023-03-12T06:10:52;100646.00;;;10.20;74.89
74615;BME280;63121;51.458;-0.110;2023-03-12T06:13:20;100649.63;;;10.01;75.29
74615;BME280;63121;51.458;-0.110;2023-03-12T06:15:46;100644.25;;;10.25;74.57
74615;BME280;63121;51.458;-0.110;2023-03-12T06:18:12;100641.41;;;10.50;73.17
74615;BME280;63121;51.458;-0.110;2023-03-12T06:20:37;100633.78;;;10.39;73.43
74615;BME280;63121;51.458;-0.110;2023-03-12T06:23:02;100637.97;;;10.49;72.92
74615;BME280;63121;51.458;-0.110;2023-03-12T06:25:28;100645.88;;;10.35;73.37
74615;BME280;63121;51.458;-0.110;2023-03-12T06:27:53;100649.53;;;10.13;74.07
74615;BME280;63121;51.458;-0.110;2023-03-12T06:30:18;100644.31;;;10.17;74.42
74615;BME280;63121;51.458;-0.110;2023-03-12T06:32:44;100651.06;;;10.32;73.73
74615;BME280;63121;51.458;-0.110;2023-03-12T06:35:09;100657.16;;;10.22;74.12
74615;BME280;63121;51.458;-0.110;2023-03-12T06:37:35;100658.16;;;10.09;74.09
74615;BME280;63121;51.458;-0.110;2023-03-12T06:40:00;100658.72;;;10.38;73.00
74615;BME280;63121;51.458;-0.110;2023-03-12T06:42:25;100656.22;;;10.32;73.63
74615;BME280;63121;51.458;-0.110;2023-03-12T06:44:51;100658.84;;;10.31;73.31
74615;BME280;63121;51.458;-0.110;2023-03-12T06:47:17;100669.09;;;10.35;73.12
74615;BME280;63121;51.458;-0.110;2023-03-12T06:49:43;100676.09;;;10.20;73.29
74615;BME280;63121;51.458;-0.110;2023-03-12T06:52:08;100688.03;;;10.34;73.05
74615;BME280;63121;51.458;-0.110;2023-03-12T06:54:34;100707.94;;;10.17;73.52
74615;BME280;63121;51.458;-0.110;2023-03-12T06:56:59;100699.25;;;10.27;72.97
74615;BME280;63121;51.458;-0.110;2023-03-12T06:59:25;100702.00;;;10.09;73.50
74615;BME280;63121;51.458;-0.110;2023-03-12T07:01:51;100695.03;;;10.18;72.98
74615;BME280;63121;51.458;-0.110;2023-03-12T07:04:16;100699.38;;;10.16;72.89
74615;BME280;63121;51.458;-0.110;2023-03-12T07:06:41;100692.44;;;10.20;72.42
74615;BME280;63121;51.458;-0.110;2023-03-12T07:09:07;100694.84;;;10.40;71.92
74615;BME280;63121;51.458;-0.110;2023-03-12T07:11:32;100688.88;;;10.35;72.31
74615;BME280;63121;51.458;-0.110;2023-03-12T07:13:58;100684.44;;;10.48;71.78
74615;BME280;63121;51.458;-0.110;2023-03-12T07:16:23;100680.84;;;10.60;71.94
74615;BME280;63121;51.458;-0.110;2023-03-12T07:18:49;100678.53;;;10.40;72.51
74615;BME280;63121;51.458;-0.110;2023-03-12T07:21:14;100688.94;;;10.26;72.69
74615;BME280;63121;51.458;-0.110;2023-03-12T07:23:50;100703.34;;;10.50;72.37
74615;BME280;63121;51.458;-0.110;2023-03-12T07:26:16;100713.03;;;10.25;72.78
74615;BME280;63121;51.458;-0.110;2023-03-12T07:28:41;100698.56;;;10.90;71.19
74615;BME280;63121;51.458;-0.110;2023-03-12T07:31:07;100696.19;;;11.38;69.21
74615;BME280;63121;51.458;-0.110;2023-03-12T07:33:32;100716.44;;;11.07;70.30
74615;BME280;63121;51.458;-0.110;2023-03-12T07:35:58;100712.63;;;11.33;69.33
74615;BME280;63121;51.458;-0.110;2023-03-12T07:38:24;100699.72;;;11.31;69.91
74615;BME280;63121;51.458;-0.110;2023-03-12T07:40:51;100699.88;;;11.19;70.50
74615;BME280;63121;51.458;-0.110;2023-03-12T07:43:17;100706.63;;;11.31;69.67
74615;BME280;63121;51.458;-0.110;2023-03-12T07:45:42;100704.19;;;11.20;70.92
74615;BME280;63121;51.458;-0.110;2023-03-12T07:48:07;100706.03;;;11.12;71.51
74615;BME280;63121;51.458;-0.110;2023-03-12T07:50:33;100732.53;;;11.26;71.17
74615;BME280;63121;51.458;-0.110;2023-03-12T07:52:59;100734.09;;;11.38;70.76
74615;BME280;63121;51.458;-0.110;2023-03-12T07:55:25;100732.91;;;11.59;70.29
74615;BME280;63121;51.458;-0.110;2023-03-12T07:57:51;100729.47;;;11.60;70.19
74615;BME280;63121;51.458;-0.110;2023-03-12T08:00:18;100717.13;;;11.20;71.60
74615;BME280;63121;51.458;-0.110;2023-03-12T08:02:43;100710.28;;;11.75;69.95
74615;BME280;63121;51.458;-0.110;2023-03-12T08:05:09;100715.28;;;11.86;69.44
74615;BME280;63121;51.458;-0.110;2023-03-12T08:07:34;100717.81;;;11.33;70.63
74615;BME280;63121;51.458;-0.110;2023-03-12T08:10:01;100721.03;;;12.03;68.68
74615;BME280;63121;51.458;-0.110;2023-03-12T08:12:27;100746.31;;;11.84;68.87
74615;BME280;63121;51.458;-0.110;2023-03-12T08:14:53;100734.00;;;12.02;68.33
74615;BME280;63121;51.458;-0.110;2023-03-12T08:17:18;100744.22;;;12.09;69.16
74615;BME280;63121;51.458;-0.110;2023-03-12T08:19:44;100747.31;;;11.77;70.01
74615;BME280;63121;51.458;-0.110;2023-03-12T08:22:10;100754.91;;;11.89;68.87
74615;BME280;63121;51.458;-0.110;2023-03-12T08:24:35;100729.78;;;11.96;68.39
74615;BME280;63121;51.458;-0.110;2023-03-12T08:27:00;100727.19;;;12.46;66.90
74615;BME280;63121;51.458;-0.110;2023-03-12T08:29:26;100729.72;;;12.49;67.13
74615;BME280;63121;51.458;-0.110;2023-03-12T08:31:52;100733.44;;;12.34;67.28
74615;BME280;63121;51.458;-0.110;2023-03-12T08:34:17;100736.38;;;12.62;66.51
74615;BME280;63121;51.458;-0.110;2023-03-12T08:36:42;100749.59;;;12.48;66.50
74615;BME280;63121;51.458;-0.110;2023-03-12T08:39:08;100742.97;;;12.33;67.00
74615;BME280;63121;51.458;-0.110;2023-03-12T08:41:33;100741.78;;;12.50;66.39
74615;BME280;63121;51.458;-0.110;2023-03-12T08:43:59;100739.66;;;12.70;65.58
74615;BME280;63121;51.458;-0.110;2023-03-12T08:46:24;100752.19;;;12.48;66.37
74615;BME280;63121;51.458;-0.110;2023-03-12T08:48:49;100746.56;;;12.71;65.97
74615;BME280;63121;51.458;-0.110;2023-03-12T08:51:15;100758.66;;;13.14;64.43
74615;BME280;63121;51.458;-0.110;2023-03-12T08:53:41;100759.66;;;12.64;65.55
74615;BME280;63121;51.458;-0.110;2023-03-12T08:56:07;100758.63;;;13.16;64.46
74615;BME280;63121;51.458;-0.110;2023-03-12T08:58:32;100762.44;;;12.96;64.92
74615;BME280;63121;51.458;-0.110;2023-03-12T09:00:57;100762.75;;;13.25;63.91
74615;BME280;63121;51.458;-0.110;2023-03-12T09:03:23;100761.44;;;13.05;64.45
74615;BME280;63121;51.458;-0.110;2023-03-12T09:05:49;100762.03;;;13.18;63.27
74615;BME280;63121;51.458;-0.110;2023-03-12T09:08:16;100762.25;;;13.07;63.77
74615;BME280;63121;51.458;-0.110;2023-03-12T09:10:47;100762.59;;;12.90;63.99
74615;BME280;63121;51.458;-0.110;2023-03-12T09:13:14;100754.56;;;13.02;63.42
74615;BME280;63121;51.458;-0.110;2023-03-12T09:15:39;100762.19;;;13.10;63.45
74615;BME280;63121;51.458;-0.110;2023-03-12T09:18:05;100771.34;;;12.85;63.63
74615;BME280;63121;51.458;-0.110;2023-03-12T09:20:30;100767.28;;;12.71;63.76
74615;BME280;63121;51.458;-0.110;2023-03-12T09:22:56;100765.09;;;12.95;63.22
74615;BME280;63121;51.458;-0.110;2023-03-12T09:25:21;100773.97;;;12.81;63.46
74615;BME280;63121;51.458;-0.110;2023-03-12T09:27:47;100777.56;;;12.74;63.43
74615;BME280;63121;51.458;-0.110;2023-03-12T09:30:18;100769.53;;;13.32;61.52
74615;BME280;63121;51.458;-0.110;2023-03-12T09:32:44;100777.50;;;13.61;61.30
74615;BME280;63121;51.458;-0.110;2023-03-12T09:35:11;100775.81;;;13.60;60.83
74615;BME280;63121;51.458;-0.110;2023-03-12T09:37:37;100780.78;;;14.41;58.98
74615;BME280;63121;51.458;-0.110;2023-03-12T09:40:04;100782.84;;;13.55;61.03
74615;BME280;63121;51.458;-0.110;2023-03-12T09:45:04;100778.84;;;13.79;60.64
74615;BME280;63121;51.458;-0.110;2023-03-12T09:47:41;100758.94;;;14.16;59.78
74615;BME280;63121;51.458;-0.110;2023-03-12T09:50:24;100769.34;;;13.78;60.88
74615;BME280;63121;51.458;-0.110;2023-03-12T09:55:24;100782.91;;;13.52;61.79
74615;BME280;63121;51.458;-0.110;2023-03-12T09:57:50;100770.94;;;13.47;61.64
74615;BME280;63121;51.458;-0.110;2023-03-12T10:05:16;100761.75;;;14.07;60.58
74615;BME280;63121;51.458;-0.110;2023-03-12T10:07:49;100764.00;;;14.20;60.59
74615;BME280;63121;51.458;-0.110;2023-03-12T10:27:11;100741.16;;;14.68;58.68
74615;BME280;63121;51.458;-0.110;2023-03-12T10:29:41;100737.97;;;14.56;58.92
74615;BME280;63121;51.458;-0.110;2023-03-12T10:32:16;100739.66;;;14.24;59.88
74615;BME280;63121;51.458;-0.110;2023-03-12T10:34:46;100741.38;;;14.26;59.26
74615;BME280;63121;51.458;-0.110;2023-03-12T10:37:18;100725.00;;;14.23;58.39
74615;BME280;63121;51.458;-0.110;2023-03-12T10:39:45;100738.47;;;14.38;58.56
74615;BME280;63121;51.458;-0.110;2023-03-12T10:42:14;100730.31;;;14.50;58.35
74615;BME280;63121;51.458;-0.110;2023-03-12T10:44:41;100732.22;;;15.08;57.21
74615;BME280;63121;51.458;-0.110;2023-03-12T10:47:29;100733.94;;;15.07;56.67
74615;BME280;63121;51.458;-0.110;2023-03-12T10:50:19;100733.22;;;14.72;58.43
74615;BME280;63121;51.458;-0.110;2023-03-12T10:52:47;100732.19;;;15.37;56.36
74615;BME280;63121;51.458;-0.110;2023-03-12T10:57:45;100740.59;;;14.88;57.46
74615;BME280;63121;51.458;-0.110;2023-03-12T11:00:31;100730.84;;;15.24;57.35
74615;BME280;63121;51.458;-0.110;2023-03-12T11:03:19;100730.53;;;15.35;56.76
74615;BME280;63121;51.458;-0.110;2023-03-12T11:08:27;100724.41;;;14.78;58.13
74615;BME280;63121;51.458;-0.110;2023-03-12T11:10:55;100732.84;;;15.44;56.54
74615;BME280;63121;51.458;-0.110;2023-03-12T11:16:22;100715.63;;;15.40;56.17
74615;BME280;63121;51.458;-0.110;2023-03-12T11:19:00;100704.84;;;15.24;56.26
74615;BME280;63121;51.458;-0.110;2023-03-12T11:21:27;100698.19;;;15.70;55.32
74615;BME280;63121;51.458;-0.110;2023-03-12T11:26:28;100705.59;;;15.84;54.56
74615;BME280;63121;51.458;-0.110;2023-03-12T11:29:01;100705.88;;;16.26;53.65
74615;BME280;63121;51.458;-0.110;2023-03-12T11:31:34;100697.91;;;16.55;53.17
74615;BME280;63121;51.458;-0.110;2023-03-12T11:34:19;100707.38;;;16.09;53.81
74615;BME280;63121;51.458;-0.110;2023-03-12T11:36:57;100709.25;;;16.03;53.19
74615;BME280;63121;51.458;-0.110;2023-03-12T11:39:35;100714.44;;;16.30;53.02
74615;BME280;63121;51.458;-0.110;2023-03-12T11:47:31;100701.38;;;16.80;51.67
74615;BME280;63121;51.458;-0.110;2023-03-12T11:50:27;100714.28;;;15.83;53.57
74615;BME280;63121;51.458;-0.110;2023-03-12T12:04:02;100690.28;;;16.25;53.01
74615;BME280;63121;51.458;-0.110;2023-03-12T12:09:42;100679.34;;;16.40;52.17
74615;BME280;63121;51.458;-0.110;2023-03-12T12:12:52;100684.00;;;16.79;51.50
74615;BME280;63121;51.458;-0.110;2023-03-12T12:16:16;100679.97;;;16.47;51.84
74615;BME280;63121;51.458;-0.110;2023-03-12T12:18:47;100676.16;;;16.07;52.93
74615;BME280;63121;51.458;-0.110;2023-03-12T12:30:12;100661.41;;;17.03;50.72
74615;BME280;63121;51.458;-0.110;2023-03-12T12:32:12;100654.81;;;17.15;51.05
74615;BME280;63121;51.458;-0.110;2023-03-12T12:37:28;100645.16;;;17.82;49.90
74615;BME280;63121;51.458;-0.110;2023-03-12T12:40:21;100640.19;;;17.76;49.49
74615;BME280;63121;51.458;-0.110;2023-03-12T12:43:24;100630.00;;;17.70;49.47
74615;BME280;63121;51.458;-0.110;2023-03-12T12:45:56;100619.19;;;17.99;49.34
74615;BME280;63121;51.458;-0.110;2023-03-12T12:48:31;100612.13;;;17.81;49.98
74615;BME280;63121;51.458;-0.110;2023-03-12T12:51:02;100609.00;;;17.93;49.39
74615;BME280;63121;51.458;-0.110;2023-03-12T12:53:35;100602.19;;;18.49;48.76
74615;BME280;63121;51.458;-0.110;2023-03-12T12:56:18;100619.75;;;18.26;48.42
74615;BME280;63121;51.458;-0.110;2023-03-12T12:59:02;100617.91;;;17.89;49.18
74615;BME280;63121;51.458;-0.110;2023-03-12T13:01:34;100605.75;;;17.88;49.00
74615;BME280;63121;51.458;-0.110;2023-03-12T13:09:46;100596.31;;;18.04;48.76
74615;BME280;63121;51.458;-0.110;2023-03-12T13:18:07;100590.66;;;17.74;50.00
74615;BME280;63121;51.458;-0.110;2023-03-12T13:26:16;100590.03;;;18.08;49.61
74615;BME280;63121;51.458;-0.110;2023-03-12T13:29:22;100590.28;;;18.23;49.09
74615;BME280;63121;51.458;-0.110;2023-03-12T13:32:03;100582.13;;;17.91;49.17
74615;BME280;63121;51.458;-0.110;2023-03-12T13:34:32;100583.47;;;17.79;49.59
74615;BME280;63121;51.458;-0.110;2023-03-12T13:37:18;100577.06;;;17.45;50.27
74615;BME280;63121;51.458;-0.110;2023-03-12T13:39:44;100576.63;;;17.36;49.99
74615;BME280;63121;51.458;-0.110;2023-03-12T13:44:48;100572.53;;;17.71;49.02
74615;BME280;63121;51.458;-0.110;2023-03-12T13:47:33;100575.84;;;17.95;48.63
74615;BME280;63121;51.458;-0.110;2023-03-12T13:53:14;100574.16;;;17.74;48.16
74615;BME280;63121;51.458;-0.110;2023-03-12T13:55:41;100566.41;;;18.12;47.89
74615;BME280;63121;51.458;-0.110;2023-03-12T13:58:13;100570.16;;;18.25;47.18
74615;BME280;63121;51.458;-0.110;2023-03-12T14:00:59;100552.84;;;17.21;49.17
74615;BME280;63121;51.458;-0.110;2023-03-12T14:03:42;100553.78;;;17.61;48.65
74615;BME280;63121;51.458;-0.110;2023-03-12T14:06:23;100557.09;;;18.25;47.68
74615;BME280;63121;51.458;-0.110;2023-03-12T14:09:08;100551.53;;;17.73;48.51
74615;BME280;63121;51.458;-0.110;2023-03-12T14:12:03;100536.34;;;17.62;48.47
74615;BME280;63121;51.458;-0.110;2023-03-12T14:17:24;100538.59;;;18.29;47.28
74615;BME280;63121;51.458;-0.110;2023-03-12T14:19:59;100531.53;;;18.32;47.17
74615;BME280;63121;51.458;-0.110;2023-03-12T14:22:29;100545.13;;;18.00;47.31
74615;BME280;63121;51.458;-0.110;2023-03-12T14:24:58;100534.84;;;17.77;47.83
74615;BME280;63121;51.458;-0.110;2023-03-12T14:27:30;100531.16;;;17.21;48.86
74615;BME280;63121;51.458;-0.110;2023-03-12T14:32:37;100546.25;;;16.91;49.95